createdAt,value
2022-08-05T00:02:11.462Z,16.80
2022-08-05T00:04:40.309Z,15.82
2022-08-05T00:07:26.936Z,16.92
2022-08-05T00:09:54.625Z,15.73
2022-08-05T00:12:29.836Z,16.50
2022-08-05T00:14:56.549Z,15.98
2022-08-05T00:17:23.256Z,15.13
2022-08-05T00:20:02.514Z,14.63
2022-08-05T00:22:31.084Z,15.52
2022-08-05T00:25:01.245Z,15.10
2022-08-05T00:27:36.162Z,14.77
2022-08-05T00:30:05.357Z,14.70
2022-08-05T00:32:38.269Z,15.30
2022-08-05T00:35:08.097Z,14.32
2022-08-05T00:37:53.206Z,13.63
2022-08-05T00:40:27.267Z,14.15
2022-08-05T00:42:58.228Z,13.15
2022-08-05T00:45:38.412Z,13.02
2022-08-05T00:48:27.418Z,11.82
2022-08-05T00:50:59.795Z,11.50
2022-08-05T00:54:01.110Z,11.48
2022-08-05T00:56:23.113Z,11.60
2022-08-05T00:58:50.389Z,10.43
2022-08-05T01:02:17.019Z,10.50
2022-08-05T01:04:43.686Z,10.68
2022-08-05T01:08:41.698Z,9.75
2022-08-05T01:10:57.924Z,9.98
2022-08-05T01:13:58.551Z,9.32
2022-08-05T01:17:09.390Z,8.55
2022-08-05T01:20:01.964Z,7.30
2022-08-05T01:23:47.144Z,6.63
2022-08-05T01:26:56.970Z,6.45
2022-08-05T01:29:39.623Z,5.43
2022-08-05T01:32:12.712Z,4.82
2022-08-05T01:35:02.651Z,4.32
2022-08-05T01:37:44.338Z,3.90
2022-08-05T01:40:17.815Z,4.25
2022-08-05T01:42:51.307Z,4.18
2022-08-05T01:45:34.961Z,4.15
2022-08-05T01:48:12.923Z,4.90
2022-08-05T01:50:41.731Z,3.75
2022-08-05T01:53:54.879Z,4.05
2022-08-05T01:58:09.772Z,3.67
2022-08-05T01:59:07.568Z,3.92
2022-08-05T02:01:39.982Z,4.15
2022-08-05T02:04:10.377Z,3.60
2022-08-05T02:06:39.876Z,4.10
2022-08-05T02:09:08.292Z,4.10
2022-08-05T02:11:52.609Z,4.72
2022-08-05T02:14:55.437Z,4.30
2022-08-05T02:21:56.524Z,4.47
2022-08-05T02:28:02.388Z,3.85
2022-08-05T02:30:57.130Z,4.43
2022-08-05T02:33:38.280Z,4.90
2022-08-05T02:36:09.812Z,4.65
2022-08-05T02:41:43.019Z,4.53
2022-08-05T02:44:19.789Z,4.70
2022-08-05T02:47:00.912Z,4.20
2022-08-05T02:49:37.143Z,4.38
2022-08-05T02:52:29.740Z,3.70
2022-08-05T02:54:58.974Z,4.00
2022-08-05T02:58:09.941Z,4.07
2022-08-05T03:00:17.965Z,4.05
2022-08-05T03:02:47.960Z,4.78
2022-08-05T03:05:21.852Z,3.95
2022-08-05T03:08:08.945Z,4.20
2022-08-05T03:10:36.553Z,4.63
2022-08-05T03:13:16.723Z,4.97
2022-08-05T03:15:54.623Z,4.93
2022-08-05T03:18:24.685Z,5.30
2022-08-05T03:20:57.027Z,5.50
2022-08-05T03:23:26.011Z,5.90
2022-08-05T03:26:04.725Z,5.60
2022-08-05T03:28:42.590Z,5.25
2022-08-05T03:31:09.403Z,5.43
2022-08-05T03:33:52.702Z,4.97
2022-08-05T03:36:30.182Z,5.80
2022-08-05T03:38:59.070Z,6.30
2022-08-05T03:41:33.251Z,5.93
2022-08-05T03:44:11.530Z,5.43
2022-08-05T03:46:53.751Z,6.32
2022-08-05T03:49:21.088Z,6.90
2022-08-05T03:52:36.907Z,6.05
2022-08-05T03:56:00.779Z,6.68
2022-08-05T03:57:46.115Z,6.47
2022-08-05T04:00:18.189Z,6.32
2022-08-05T04:02:57.685Z,7.25
2022-08-05T04:05:40.208Z,7.82
2022-08-05T04:08:29.647Z,6.95
2022-08-05T04:11:02.266Z,7.53
2022-08-05T04:13:50.930Z,7.55
2022-08-05T04:16:24.922Z,7.70
2022-08-05T04:18:57.786Z,7.00
2022-08-05T04:22:09.882Z,6.53
2022-08-05T04:24:19.613Z,7.40
2022-08-05T04:26:50.361Z,8.13
2022-08-05T04:29:24.786Z,7.05
2022-08-05T04:31:53.875Z,8.00
2022-08-05T04:34:32.473Z,7.30
2022-08-05T04:37:03.462Z,7.60
2022-08-05T04:40:19.628Z,6.47
2022-08-05T04:42:52.437Z,7.75
2022-08-05T04:45:22.930Z,7.55
2022-08-05T04:48:28.518Z,7.90
2022-08-05T04:51:03.405Z,7.38
2022-08-05T04:53:38.641Z,7.80
2022-08-05T04:56:33.789Z,7.53
2022-08-05T04:58:58.265Z,8.25
2022-08-05T05:02:04.053Z,8.40
2022-08-05T05:04:13.627Z,8.10
2022-08-05T05:06:44.847Z,8.65
2022-08-05T05:09:18.331Z,8.38
2022-08-05T05:11:52.950Z,8.50
2022-08-05T05:14:31.537Z,8.85
2022-08-05T05:17:02.130Z,9.10
2022-08-05T05:19:56.562Z,9.30
2022-08-05T05:22:26.029Z,9.15
2022-08-05T05:24:56.852Z,9.95
2022-08-05T05:27:56.250Z,10.63
2022-08-05T05:30:29.645Z,9.95
2022-08-05T05:33:00.972Z,9.77
2022-08-05T05:35:37.992Z,10.15
2022-08-05T05:38:09.174Z,9.90
2022-08-05T05:40:49.621Z,11.30
2022-08-05T05:43:27.560Z,10.38
2022-08-05T05:46:13.813Z,10.75
2022-08-05T05:48:44.529Z,11.07
2022-08-05T05:51:14.980Z,9.65
2022-08-05T05:53:46.012Z,10.85
2022-08-05T05:56:26.108Z,10.18
2022-08-05T05:58:58.642Z,9.38
2022-08-05T06:01:37.742Z,10.52
2022-08-05T06:04:05.471Z,9.77
2022-08-05T06:06:34.677Z,9.27
2022-08-05T06:09:03.836Z,9.32
2022-08-05T06:11:30.582Z,8.93
2022-08-05T06:13:57.209Z,8.65
2022-08-05T06:16:28.320Z,8.35
2022-08-05T06:19:01.246Z,8.57
2022-08-05T06:21:36.799Z,8.55
2022-08-05T06:26:51.883Z,10.55
2022-08-05T06:29:24.993Z,9.20
2022-08-05T06:32:21.451Z,9.75
2022-08-05T06:34:56.752Z,9.70
2022-08-05T06:37:55.896Z,8.98
2022-08-05T06:40:21.031Z,9.05
2022-08-05T06:42:51.879Z,9.45
2022-08-05T06:45:43.943Z,9.40
2022-08-05T06:48:44.294Z,10.55
2022-08-05T06:51:09.530Z,10.32
2022-08-05T06:53:39.368Z,10.65
2022-08-05T06:56:07.306Z,10.20
2022-08-05T06:58:52.766Z,10.75
2022-08-05T07:01:21.010Z,11.30
2022-08-05T07:03:47.924Z,9.65
2022-08-05T07:06:15.265Z,10.15
2022-08-05T07:08:47.772Z,10.80
2022-08-05T07:11:19.689Z,10.63
2022-08-05T07:14:07.887Z,10.82
2022-08-05T07:17:58.982Z,10.38
2022-08-05T07:22:30.234Z,12.02
2022-08-05T07:25:23.147Z,11.25
2022-08-05T07:27:58.152Z,12.15
2022-08-05T07:30:33.664Z,11.45
2022-08-05T07:33:09.943Z,11.05
2022-08-05T07:36:01.485Z,9.57
2022-08-05T07:38:34.378Z,10.60
2022-08-05T07:41:35.026Z,9.95
2022-08-05T07:43:56.922Z,9.40
2022-08-05T07:46:28.528Z,9.27
2022-08-05T07:49:02.311Z,8.85
2022-08-05T07:51:37.098Z,8.65
2022-08-05T07:54:09.799Z,8.68
2022-08-05T07:57:13.629Z,8.68
2022-08-05T07:59:38.638Z,7.47
2022-08-05T08:02:15.448Z,8.13
2022-08-05T08:04:45.607Z,7.45
2022-08-05T08:07:13.012Z,8.10
2022-08-05T08:09:39.923Z,7.15
2022-08-05T08:12:27.535Z,8.52
2022-08-05T08:14:54.793Z,8.30
2022-08-05T08:17:22.254Z,7.78
2022-08-05T08:20:44.495Z,8.20
2022-08-05T08:22:37.561Z,7.75
2022-08-05T08:25:15.805Z,7.93
2022-08-05T08:27:44.940Z,7.30
2022-08-05T08:30:29.475Z,7.47
2022-08-05T08:33:02.562Z,7.43
2022-08-05T08:36:07.985Z,8.85
2022-08-05T08:38:38.947Z,7.85
2022-08-05T08:41:08.557Z,7.88
2022-08-05T08:45:24.776Z,7.28
2022-08-05T08:46:27.488Z,7.43
2022-08-05T08:49:06.357Z,7.50
2022-08-05T08:52:05.608Z,7.22
2022-08-05T08:54:31.699Z,7.78
2022-08-05T08:57:00.418Z,7.43
2022-08-05T08:59:33.537Z,7.68
2022-08-05T09:02:04.445Z,8.02
2022-08-05T09:04:58.467Z,8.32
2022-08-05T09:07:28.747Z,8.35
2022-08-05T09:09:56.601Z,6.88
2022-08-05T09:12:27.364Z,6.80
2022-08-05T09:14:59.426Z,6.57
2022-08-05T09:17:42.358Z,6.72
2022-08-05T09:20:36.644Z,7.38
2022-08-05T09:23:07.984Z,7.10
2022-08-05T09:25:59.869Z,7.13
2022-08-05T09:28:31.631Z,6.78
2022-08-05T09:31:22.408Z,6.30
2022-08-05T09:34:11.659Z,6.85
2022-08-05T09:36:59.811Z,6.75
2022-08-05T09:39:45.263Z,6.30
2022-08-05T09:42:40.126Z,6.43
2022-08-05T09:46:04.697Z,6.18
2022-08-05T09:48:00.271Z,5.30
2022-08-05T09:51:14.971Z,5.10
2022-08-05T09:53:53.853Z,6.32
2022-08-05T09:56:34.120Z,5.82
2022-08-05T09:59:09.674Z,7.22
2022-08-05T10:01:46.496Z,7.95
2022-08-05T10:04:16.215Z,8.30
2022-08-05T10:07:01.672Z,7.85
2022-08-05T10:10:04.398Z,9.10
2022-08-05T10:12:52.730Z,8.88
2022-08-05T10:15:34.268Z,9.15
2022-08-05T10:18:13.408Z,8.37
2022-08-05T10:20:47.687Z,8.55
2022-08-05T10:23:55.108Z,9.32
2022-08-05T10:26:18.143Z,8.13
2022-08-05T10:28:47.731Z,9.05
2022-08-05T10:32:49.466Z,8.48
2022-08-05T10:34:07.092Z,9.05
2022-08-05T10:36:40.474Z,8.85
2022-08-05T10:39:15.183Z,9.30
2022-08-05T10:42:18.552Z,9.40
2022-08-05T10:44:46.756Z,8.30
2022-08-05T10:47:27.113Z,8.95
2022-08-05T10:50:31.606Z,8.48
2022-08-05T10:53:02.275Z,8.95
2022-08-05T10:56:03.618Z,8.82
2022-08-05T10:58:21.783Z,9.02
2022-08-05T11:01:07.401Z,9.27
2022-08-05T11:04:15.698Z,7.72
2022-08-05T11:07:02.216Z,7.20
2022-08-05T11:09:45.614Z,7.47
2022-08-05T11:12:45.469Z,7.20
2022-08-05T11:16:01.171Z,8.68
2022-08-05T11:18:30.047Z,8.68
2022-08-05T11:20:59.109Z,8.35
2022-08-05T11:24:03.812Z,7.78
2022-08-05T11:26:37.088Z,7.78
2022-08-05T11:29:13.466Z,7.30
2022-08-05T11:31:58.907Z,6.63
2022-08-05T11:34:51.826Z,6.25
2022-08-05T11:38:36.562Z,6.40
2022-08-05T11:41:03.508Z,4.60
2022-08-05T11:44:05.962Z,4.93
2022-08-05T11:47:09.634Z,5.20
2022-08-05T11:49:28.431Z,4.53
2022-08-05T11:51:55.309Z,5.20
2022-08-05T11:54:33.587Z,5.00
2022-08-05T11:57:25.169Z,5.72
2022-08-05T12:00:02.310Z,6.88
2022-08-05T12:02:36.113Z,6.50
2022-08-05T12:05:07.010Z,7.00
2022-08-05T12:10:45.598Z,5.88
2022-08-05T12:13:17.046Z,5.03
2022-08-05T12:15:50.241Z,5.55
2022-08-05T12:18:33.291Z,5.03
2022-08-05T12:21:19.687Z,5.65
2022-08-05T12:24:04.319Z,4.63
2022-08-05T12:26:44.117Z,4.53
2022-08-05T12:29:17.993Z,5.10
2022-08-05T12:32:02.044Z,5.05
2022-08-05T12:34:33.749Z,5.32
2022-08-05T12:37:29.822Z,5.20
2022-08-05T12:40:10.655Z,5.25
2022-08-05T12:42:37.520Z,5.22
2022-08-05T12:45:09.711Z,5.22
2022-08-05T12:47:38.331Z,4.80
2022-08-05T12:50:19.940Z,4.95
2022-08-05T12:52:59.756Z,4.10
2022-08-05T12:55:33.016Z,4.82
2022-08-05T12:58:38.552Z,4.40
2022-08-05T13:02:01.735Z,3.97
2022-08-05T13:03:42.183Z,4.32
2022-08-05T13:06:19.866Z,4.10
2022-08-05T13:08:51.987Z,3.75
2022-08-05T13:12:01.479Z,4.60
2022-08-05T13:14:35.964Z,3.55
2022-08-05T13:17:31.602Z,4.25
2022-08-05T13:20:23.452Z,3.83
2022-08-05T13:22:53.367Z,3.78
2022-08-05T13:25:51.981Z,3.88
2022-08-05T13:28:11.714Z,3.45
2022-08-05T13:30:40.831Z,3.35
2022-08-05T13:33:07.603Z,2.50
2022-08-05T13:35:47.286Z,2.05
2022-08-05T13:38:28.182Z,3.13
2022-08-05T13:40:58.530Z,2.20
2022-08-05T13:43:43.341Z,2.75
2022-08-05T13:46:12.710Z,2.33
2022-08-05T13:48:58.742Z,2.53
2022-08-05T13:51:40.307Z,2.40
2022-08-05T13:54:12.560Z,2.72
2022-08-05T13:56:45.576Z,2.30
2022-08-05T13:59:24.167Z,1.88
2022-08-05T14:02:00.382Z,1.80
2022-08-05T14:04:50.021Z,1.42
2022-08-05T14:07:25.689Z,1.70
2022-08-05T14:10:18.955Z,2.20
2022-08-05T14:12:55.158Z,2.13
2022-08-05T14:16:04.464Z,1.90
2022-08-05T14:18:15.283Z,1.10
2022-08-05T14:20:47.930Z,1.50
2022-08-05T14:23:23.470Z,1.23
2022-08-05T14:25:53.973Z,1.08
2022-08-05T14:28:26.880Z,1.20
2022-08-05T14:30:54.440Z,1.48
2022-08-05T14:33:22.683Z,1.30
2022-08-05T14:35:51.564Z,1.50
2022-08-05T14:38:32.558Z,1.33
2022-08-05T14:41:07.941Z,1.38
2022-08-05T14:46:23.462Z,1.70
2022-08-05T14:48:56.867Z,1.73
2022-08-05T14:51:24.863Z,1.42
2022-08-05T14:54:27.746Z,1.50
2022-08-05T14:56:47.030Z,1.55
2022-08-05T14:59:35.600Z,1.50
2022-08-05T15:02:03.952Z,1.70
2022-08-05T15:04:45.033Z,1.85
2022-08-05T15:10:01.483Z,1.90
2022-08-05T15:12:51.597Z,1.50
2022-08-05T15:15:55.661Z,1.73
2022-08-05T15:18:07.832Z,1.70
2022-08-05T15:20:37.448Z,1.20
2022-08-05T15:23:09.517Z,1.60
2022-08-05T15:25:52.968Z,1.70
2022-08-05T15:28:26.958Z,1.95
2022-08-05T15:30:55.183Z,1.73
2022-08-05T15:34:18.535Z,1.90
2022-08-05T15:36:17.819Z,1.50
2022-08-05T15:40:58.793Z,2.00
2022-08-05T15:41:56.299Z,1.83
2022-08-05T15:44:27.551Z,1.70
2022-08-05T15:46:57.932Z,1.77
2022-08-05T15:49:53.644Z,2.22
2022-08-05T15:52:29.593Z,3.38
2022-08-05T15:55:08.388Z,2.15
2022-08-05T16:01:29.296Z,2.10
2022-08-05T16:03:59.572Z,2.55
2022-08-05T16:17:13.273Z,2.67
2022-08-05T16:20:04.337Z,3.05
2022-08-05T16:22:38.698Z,2.42
2022-08-05T16:25:11.463Z,2.83
2022-08-05T16:27:59.811Z,2.20
2022-08-05T16:34:16.470Z,2.70
2022-08-05T16:40:06.443Z,2.10
2022-08-05T16:46:04.781Z,2.30
2022-08-05T16:52:06.189Z,2.33
2022-08-05T16:54:36.163Z,2.63
2022-08-05T17:00:50.180Z,2.08
2022-08-05T17:03:21.358Z,1.50
2022-08-05T17:05:54.034Z,1.65
2022-08-05T17:08:52.676Z,1.40
2022-08-05T17:11:25.783Z,1.35
2022-08-05T17:14:00.629Z,1.10
2022-08-05T17:16:38.212Z,1.42
2022-08-05T17:19:10.991Z,1.20
2022-08-05T17:21:59.661Z,1.00
2022-08-05T17:24:35.062Z,1.15
2022-08-05T17:27:09.975Z,1.17
2022-08-05T17:30:00.590Z,0.70
2022-08-05T17:32:35.167Z,0.60
2022-08-05T17:35:05.403Z,1.08
2022-08-05T17:37:41.545Z,0.60
2022-08-05T17:40:18.514Z,0.60
2022-08-05T17:42:53.215Z,0.90
2022-08-05T17:45:25.157Z,0.98
2022-08-05T17:48:39.112Z,0.47
2022-08-05T17:54:42.406Z,0.60
2022-08-05T17:57:50.006Z,0.70
2022-08-05T18:00:31.144Z,0.65
2022-08-05T18:03:02.579Z,0.80
2022-08-05T18:05:35.579Z,0.40
2022-08-05T18:17:01.209Z,0.50
2022-08-05T18:19:54.057Z,0.93
2022-08-05T18:23:15.961Z,0.50
2022-08-05T18:25:57.810Z,0.60
2022-08-05T18:28:37.199Z,0.70
2022-08-05T18:31:33.806Z,0.60
2022-08-05T18:34:13.509Z,0.65
2022-08-05T18:37:33.656Z,0.70
2022-08-05T18:41:53.995Z,0.60
2022-08-05T18:43:48.709Z,0.40
2022-08-05T18:46:59.050Z,0.60
2022-08-05T19:25:21.641Z,0.90
2022-08-05T19:30:48.883Z,0.40
2022-08-05T19:33:35.122Z,0.50
2022-08-05T19:36:06.402Z,0.57
2022-08-05T19:38:39.156Z,0.60
2022-08-05T19:41:34.694Z,0.50
2022-08-05T19:44:20.068Z,0.70
2022-08-05T19:46:53.536Z,0.70
2022-08-05T19:49:26.631Z,0.50
2022-08-05T19:52:09.285Z,0.50
2022-08-05T19:54:47.557Z,0.60
2022-08-05T19:57:20.065Z,0.57
2022-08-05T20:00:10.188Z,0.68
2022-08-05T20:03:00.061Z,0.60
2022-08-05T20:05:43.130Z,0.70
2022-08-05T20:08:37.963Z,0.70
2022-08-05T20:11:40.109Z,0.70
2022-08-05T20:14:12.671Z,0.60
2022-08-05T20:16:44.677Z,1.17
2022-08-05T20:19:16.549Z,0.73
2022-08-05T20:21:48.607Z,0.80
2022-08-05T20:24:27.352Z,0.90
2022-08-05T20:26:57.342Z,0.52
2022-08-05T20:29:27.800Z,0.60
2022-08-05T20:32:04.401Z,0.57
2022-08-05T20:34:33.854Z,0.70
2022-08-05T20:37:18.116Z,0.70
2022-08-05T20:40:21.444Z,0.88
2022-08-05T20:42:54.516Z,1.00
2022-08-05T20:45:55.768Z,0.80
2022-08-05T20:48:32.714Z,0.68
2022-08-05T20:51:08.108Z,0.82
2022-08-05T20:53:40.944Z,0.77
2022-08-05T20:59:46.078Z,2.45
2022-08-05T21:02:39.615Z,1.60
2022-08-05T21:05:24.903Z,1.05
2022-08-05T21:07:56.266Z,0.98
2022-08-05T21:10:49.401Z,0.75
2022-08-05T21:13:47.488Z,0.70
2022-08-05T21:16:16.923Z,0.70
2022-08-05T21:18:47.701Z,0.70
2022-08-05T21:21:17.264Z,0.60
2022-08-05T21:23:47.949Z,0.82
2022-08-05T21:26:21.411Z,0.70
2022-08-05T21:28:56.286Z,1.27
2022-08-05T21:31:41.521Z,0.80
2022-08-05T21:34:11.671Z,0.70
2022-08-05T21:36:43.386Z,0.70
2022-08-05T21:39:26.841Z,0.93
2022-08-05T21:42:01.070Z,0.70
2022-08-05T21:44:34.401Z,0.90
2022-08-05T21:47:05.521Z,1.15
2022-08-05T21:50:00.059Z,0.95
2022-08-05T21:52:40.764Z,0.90
2022-08-05T21:55:42.817Z,1.00
2022-08-05T21:58:10.251Z,0.90
2022-08-05T22:01:00.497Z,1.00
2022-08-05T22:03:49.088Z,1.20
2022-08-05T22:06:22.456Z,1.00
2022-08-05T22:09:01.334Z,1.00
2022-08-05T22:11:53.185Z,0.98
2022-08-05T22:14:35.867Z,1.20
2022-08-05T22:17:30.452Z,1.10
2022-08-05T22:20:14.648Z,1.20
2022-08-05T22:23:16.810Z,1.10
2022-08-05T22:26:09.996Z,1.20
2022-08-05T22:28:39.684Z,1.15
2022-08-05T22:31:11.220Z,0.82
2022-08-05T22:33:57.973Z,1.10
2022-08-05T22:36:30.914Z,1.45
2022-08-05T22:39:21.519Z,1.30
2022-08-05T22:42:10.314Z,1.38
2022-08-05T22:44:53.585Z,1.20
2022-08-05T22:47:28.972Z,1.30
2022-08-05T22:50:19.029Z,1.52
2022-08-05T22:52:53.642Z,1.55
2022-08-05T22:55:24.276Z,1.52
2022-08-05T22:57:53.651Z,2.00
2022-08-05T23:00:24.754Z,1.77
2022-08-05T23:02:56.728Z,1.95
2022-08-05T23:05:31.500Z,1.70
2022-08-05T23:08:06.260Z,1.65
2022-08-05T23:10:33.354Z,1.77
2022-08-05T23:13:03.248Z,1.70
2022-08-05T23:15:36.354Z,2.25
2022-08-05T23:20:44.181Z,1.80
2022-08-05T23:23:10.784Z,2.35
2022-08-05T23:25:51.131Z,1.70
2022-08-05T23:28:26.895Z,1.83
2022-08-05T23:31:16.046Z,1.60
2022-08-05T23:34:03.879Z,2.10
2022-08-05T23:36:45.674Z,1.80
2022-08-05T23:39:17.430Z,2.38
2022-08-05T23:41:56.342Z,1.85
2022-08-05T23:44:27.829Z,1.50
2022-08-05T23:47:02.611Z,1.90
2022-08-05T23:49:45.926Z,2.13
2022-08-05T23:52:30.745Z,1.55
2022-08-05T23:55:08.996Z,1.60
2022-08-05T23:57:38.786Z,1.63
